Vigorous — V7ZQ2 — position and weather

sailwx.info

Track history (hours):
 
Tides and Currents Weather Stations Pressure Air Temp Water Temp Dewpoint Dewpoint Depression Visibility Wind Speed Wind Dir Waves Ship Positions

Vigorous

Last reported at 2018-Jan-10 20:04 UTC. Time now 2018-Jan-18 07:55 UTC.
Position N 38°07' E 025°27'.

Length 180 m; draft 6.1 m.

Type: Cargo ship. MMSI: 538004890.

Date/timePositionNaut miles runAvg speedWind from/ knotsBaromVisibWave heightAir tempDewpointWater temp
2018-Jan-10 20:04N 38°07' E 025°27'312.2
2018-Jan-10 19:49N 38°04' E 025°29'411.8
2018-Jan-10 19:30N 38°01' E 025°31'611.8
2018-Jan-10 19:00N 37°56' E 025°34'612.0
2018-Jan-10 18:30N 37°50' E 025°38'612.0
2018-Jan-10 18:00N 37°45' E 025°41'612.1
2018-Jan-10 17:30N 37°40' E 025°45'712.3
2018-Jan-10 16:54N 37°33' E 025°49'512.3
2018-Jan-10 16:30N 37°29' E 025°52'612.1
2018-Jan-10 16:00N 37°25' E 025°58'612.4
2018-Jan-10 15:30N 37°22' E 026°04'713.2
2018-Jan-10 15:00N 37°18' E 026°11'613.2
2018-Jan-10 14:30N 37°14' E 026°18'612.6
2018-Jan-10 14:00N 37°11' E 026°24'612.0
2018-Jan-10 13:30N 37°07' E 026°30'612.4
2018-Jan-10 12:59N 37°03' E 026°37'612.5
2018-Jan-10 12:29N 36°57' E 026°40'712.4
2018-Jan-10 11:56N 36°51' E 026°42'512.2
2018-Jan-10 11:30N 36°46' E 026°43'612.0
2018-Jan-10 11:00N 36°40' E 026°45'612.2
2018-Jan-10 10:30N 36°34' E 026°47'812.4
2018-Jan-10 09:52N 36°26' E 026°50'512.3
2018-Jan-10 09:29N 36°22' E 026°51'612.3
2018-Jan-10 08:59N 36°16' E 026°54'612.7
2018-Jan-10 08:30N 36°10' E 026°56'4 4.5
2018-Jan-10 07:43N 36°07' E 026°56'0 0.2
2018-Jan-10 07:22N 36°07' E 026°56'0 0.1
2018-Jan-10 06:58N 36°07' E 026°56'0 0.2
2018-Jan-10 06:28N 36°07' E 026°56'0 0.2
2018-Jan-10 05:49N 36°07' E 026°56'0 0.2
2018-Jan-10 05:28N 36°07' E 026°56'0 0.2
2018-Jan-10 04:58N 36°07' E 026°56'0 0.2
2018-Jan-10 04:28N 36°07' E 026°55'0 0.4
2018-Jan-10 03:58N 36°07' E 026°55'0 0.5
2018-Jan-10 03:28N 36°07' E 026°55'0 0.5
2018-Jan-10 02:55N 36°07' E 026°55'0 0.5
2018-Jan-10 02:25N 36°07' E 026°55'0 0.5
2018-Jan-10 01:58N 36°08' E 026°55'0 0.6
2018-Jan-10 01:28N 36°08' E 026°54'0 0.5
2018-Jan-10 00:58N 36°08' E 026°54'0 0.5
2018-Jan-10 00:19N 36°08' E 026°54'0 0.7
2018-Jan-09 23:58N 36°08' E 026°53'0 0.7
2018-Jan-09 23:28N 36°08' E 026°53'0 0.8
2018-Jan-09 22:58N 36°08' E 026°53'0 0.8
2018-Jan-09 22:28N 36°09' E 026°52'0 0.8
2018-Jan-09 21:58N 36°09' E 026°52'0 0.8
2018-Jan-09 21:28N 36°09' E 026°51'0 0.9
2018-Jan-09 20:58N 36°09' E 026°51'1 0.9
2018-Jan-09 20:19N 36°09' E 026°50'0 0.8
2018-Jan-09 19:52N 36°09' E 026°50'1 1.8
2018-Jan-09 19:30N 36°09' E 026°49'5 9.5
2018-Jan-09 19:00N 36°04' E 026°48'1 2.2
2018-Jan-09 18:28N 36°03' E 026°48'1 1.3
2018-Jan-09 17:52N 36°04' E 026°48'1 1.3
2018-Jan-09 17:28N 36°04' E 026°48'1 1.4
2018-Jan-09 16:58N 36°05' E 026°48'1 1.5
2018-Jan-09 16:28N 36°06' E 026°48'1 1.0
2018-Jan-09 15:55N 36°06' E 026°49'3 6.2
2018-Jan-09 15:29N 36°05' E 026°52'612.9
2018-Jan-09 15:00N 36°03' E 026°59'1 1.9
2018-Jan-09 14:26N 36°02' E 026°60'1 1.2
2018-Jan-09 13:59N 36°02' E 026°59'1 1.1
2018-Jan-09 13:14N 36°02' E 026°58'0 1.0
2018-Jan-09 12:56N 36°02' E 026°58'0 1.0
2018-Jan-09 12:29N 36°02' E 026°57'1 1.0
2018-Jan-09 11:59N 36°02' E 026°57'1 1.0
2018-Jan-09 11:26N 36°02' E 026°56'0 0.9
2018-Jan-09 10:59N 36°02' E 026°56'0 0.8
2018-Jan-09 10:26N 36°02' E 026°55'0 0.8
2018-Jan-09 09:59N 36°02' E 026°55'0 0.8
2018-Jan-09 09:23N 36°02' E 026°54'0 0.7
2018-Jan-09 08:56N 36°03' E 026°54'0 0.6
2018-Jan-09 08:29N 36°03' E 026°53'0 0.6
2018-Jan-09 07:53N 36°03' E 026°53'0 0.6
2018-Jan-09 07:26N 36°03' E 026°53'0 0.6
2018-Jan-09 06:59N 36°03' E 026°52'0 0.4
2018-Jan-09 06:23N 36°03' E 026°52'0 0.5
2018-Jan-09 05:50N 36°03' E 026°52'0 0.5
2018-Jan-09 05:11N 36°04' E 026°52'0 0.5
2018-Jan-09 04:53N 36°04' E 026°51'0 0.4
2018-Jan-09 04:17N 36°04' E 026°51'0 0.4
2018-Jan-09 03:59N 36°04' E 026°51'0 0.4
2018-Jan-09 03:26N 36°04' E 026°51'0 0.3
2018-Jan-09 02:53N 36°04' E 026°51'0 0.4
2018-Jan-09 02:26N 36°04' E 026°51'0 0.5
2018-Jan-09 01:59N 36°05' E 026°51'0 0.7
2018-Jan-09 01:23N 36°05' E 026°50'0 0.7
2018-Jan-09 00:56N 36°05' E 026°50'0 0.7
2018-Jan-09 00:29N 36°06' E 026°50'1 0.5
2018-Jan-08 22:53N 36°06' E 026°49'0 0.4
2018-Jan-08 22:29N 36°06' E 026°49'0 0.3
2018-Jan-08 21:32N 36°06' E 026°49'0 0.3
2018-Jan-08 21:20N 36°06' E 026°49'0 0.3
2018-Jan-08 20:56N 36°07' E 026°49'0 0.3
2018-Jan-08 20:29N 36°06' E 026°48'0 0.3
2018-Jan-08 19:59N 36°06' E 026°48'0 0.2
2018-Jan-08 19:29N 36°07' E 026°48'0 0.2
2018-Jan-08 18:59N 36°07' E 026°48'0 0.2
2018-Jan-08 18:29N 36°07' E 026°48'0 0.2
2018-Jan-08 17:59N 36°07' E 026°48'0 0.4
2018-Jan-08 17:29N 36°06' E 026°48'1 1.0
2018-Jan-08 16:56N 36°06' E 026°47'1 2.5
2018-Jan-08 16:31N 36°05' E 026°46'5 9.7
2018-Jan-08 16:01N 36°01' E 026°43'1 1.3
2018-Jan-08 15:16N 36°00' E 026°43'0 0.6
2018-Jan-08 14:55N 36°00' E 026°43'0 0.6
2018-Jan-08 14:31N 36°01' E 026°43'0 0.6
2018-Jan-08 13:58N 36°01' E 026°43'0 0.6
2018-Jan-08 13:28N 36°01' E 026°43'0 0.5
2018-Jan-08 12:46N 36°02' E 026°43'0 0.5
2018-Jan-08 12:16N 36°02' E 026°43'0 0.4
2018-Jan-08 11:52N 36°02' E 026°43'0 0.3
2018-Jan-08 11:25N 36°02' E 026°43'0 0.4
2018-Jan-08 10:58N 36°02' E 026°43'0 0.9
2018-Jan-08 10:25N 36°03' E 026°44'1 1.9
2018-Jan-08 09:46N 36°04' E 026°45'2 5.8
2018-Jan-08 09:30N 36°05' E 026°46'5 5.8
2018-Jan-08 08:40N 36°08' E 026°50'0 0.6
2018-Jan-08 08:19N 36°08' E 026°50'0 0.7
2018-Jan-08 07:58N 36°08' E 026°50'0 0.6
2018-Jan-08 07:28N 36°07' E 026°50'0 0.4
2018-Jan-08 06:22N 36°07' E 026°51'  
2018-Jan-01 23:03N 35°41' E 030°20'17311.9
2018-Jan-01 08:30N 36°24' E 026°53'713.1
2018-Jan-01 07:57N 36°29' E 026°48'613.3
2018-Jan-01 07:31N 36°35' E 026°46'813.3
2018-Jan-01 06:55N 36°43' E 026°44'1513.2
2018-Jan-01 05:48N 36°57' E 026°41'613.0
2018-Jan-01 05:22N 37°03' E 026°38'513.0
2018-Jan-01 05:01N 37°05' E 026°33'1312.7
2018-Jan-01 04:01N 37°13' E 026°20'613.0
2018-Jan-01 03:31N 37°17' E 026°14'612.7
2018-Jan-01 03:01N 37°21' E 026°07'612.4
2018-Jan-01 02:31N 37°24' E 026°01'612.6
2018-Jan-01 02:01N 37°28' E 025°55'612.1
2018-Jan-01 01:30N 37°32' E 025°49'1212.2
2018-Jan-01 00:31N 37°44' E 025°44'  
Track history (hours):
 
Tides and Currents Weather Stations Pressure Air Temp Water Temp Dewpoint Dewpoint Depression Visibility Wind Speed Wind Dir Waves Ship Positions

Vigorous

Last reported at 2018-Jan-10 20:04 UTC. Time now 2018-Jan-18 07:55 UTC.
Position N 38°07' E 025°27'.

Length 180 m; draft 6.1 m.

Type: Cargo ship. MMSI: 538004890.

Date/timePositionNaut miles runAvg speedWind from/ knotsBaromVisibWave heightAir tempDewpointWater temp
2018-Jan-10 20:04N 38°07' E 025°27'312.2
2018-Jan-10 19:49N 38°04' E 025°29'411.8
2018-Jan-10 19:30N 38°01' E 025°31'611.8
2018-Jan-10 19:00N 37°56' E 025°34'612.0
2018-Jan-10 18:30N 37°50' E 025°38'612.0
2018-Jan-10 18:00N 37°45' E 025°41'612.1
2018-Jan-10 17:30N 37°40' E 025°45'712.3
2018-Jan-10 16:54N 37°33' E 025°49'512.3
2018-Jan-10 16:30N 37°29' E 025°52'612.1
2018-Jan-10 16:00N 37°25' E 025°58'612.4
2018-Jan-10 15:30N 37°22' E 026°04'713.2
2018-Jan-10 15:00N 37°18' E 026°11'613.2
2018-Jan-10 14:30N 37°14' E 026°18'612.6
2018-Jan-10 14:00N 37°11' E 026°24'612.0
2018-Jan-10 13:30N 37°07' E 026°30'612.4
2018-Jan-10 12:59N 37°03' E 026°37'612.5
2018-Jan-10 12:29N 36°57' E 026°40'712.4
2018-Jan-10 11:56N 36°51' E 026°42'512.2
2018-Jan-10 11:30N 36°46' E 026°43'612.0
2018-Jan-10 11:00N 36°40' E 026°45'612.2
2018-Jan-10 10:30N 36°34' E 026°47'812.4
2018-Jan-10 09:52N 36°26' E 026°50'512.3
2018-Jan-10 09:29N 36°22' E 026°51'612.3
2018-Jan-10 08:59N 36°16' E 026°54'612.7
2018-Jan-10 08:30N 36°10' E 026°56'4 4.5
2018-Jan-10 07:43N 36°07' E 026°56'0 0.2
2018-Jan-10 07:22N 36°07' E 026°56'0 0.1
2018-Jan-10 06:58N 36°07' E 026°56'0 0.2
2018-Jan-10 06:28N 36°07' E 026°56'0 0.2
2018-Jan-10 05:49N 36°07' E 026°56'0 0.2
2018-Jan-10 05:28N 36°07' E 026°56'0 0.2
2018-Jan-10 04:58N 36°07' E 026°56'0 0.2
2018-Jan-10 04:28N 36°07' E 026°55'0 0.4
2018-Jan-10 03:58N 36°07' E 026°55'0 0.5
2018-Jan-10 03:28N 36°07' E 026°55'0 0.5
2018-Jan-10 02:55N 36°07' E 026°55'0 0.5
2018-Jan-10 02:25N 36°07' E 026°55'0 0.5
2018-Jan-10 01:58N 36°08' E 026°55'0 0.6
2018-Jan-10 01:28N 36°08' E 026°54'0 0.5
2018-Jan-10 00:58N 36°08' E 026°54'0 0.5
2018-Jan-10 00:19N 36°08' E 026°54'0 0.7
2018-Jan-09 23:58N 36°08' E 026°53'0 0.7
2018-Jan-09 23:28N 36°08' E 026°53'0 0.8
2018-Jan-09 22:58N 36°08' E 026°53'0 0.8
2018-Jan-09 22:28N 36°09' E 026°52'0 0.8
2018-Jan-09 21:58N 36°09' E 026°52'0 0.8
2018-Jan-09 21:28N 36°09' E 026°51'0 0.9
2018-Jan-09 20:58N 36°09' E 026°51'1 0.9
2018-Jan-09 20:19N 36°09' E 026°50'0 0.8
2018-Jan-09 19:52N 36°09' E 026°50'1 1.8
2018-Jan-09 19:30N 36°09' E 026°49'5 9.5
2018-Jan-09 19:00N 36°04' E 026°48'1 2.2
2018-Jan-09 18:28N 36°03' E 026°48'1 1.3
2018-Jan-09 17:52N 36°04' E 026°48'1 1.3
2018-Jan-09 17:28N 36°04' E 026°48'1 1.4
2018-Jan-09 16:58N 36°05' E 026°48'1 1.5
2018-Jan-09 16:28N 36°06' E 026°48'1 1.0
2018-Jan-09 15:55N 36°06' E 026°49'3 6.2
2018-Jan-09 15:29N 36°05' E 026°52'612.9
2018-Jan-09 15:00N 36°03' E 026°59'1 1.9
2018-Jan-09 14:26N 36°02' E 026°60'1 1.2
2018-Jan-09 13:59N 36°02' E 026°59'1 1.1
2018-Jan-09 13:14N 36°02' E 026°58'0 1.0
2018-Jan-09 12:56N 36°02' E 026°58'0 1.0
2018-Jan-09 12:29N 36°02' E 026°57'1 1.0
2018-Jan-09 11:59N 36°02' E 026°57'1 1.0
2018-Jan-09 11:26N 36°02' E 026°56'0 0.9
2018-Jan-09 10:59N 36°02' E 026°56'0 0.8
2018-Jan-09 10:26N 36°02' E 026°55'0 0.8
2018-Jan-09 09:59N 36°02' E 026°55'0 0.8
2018-Jan-09 09:23N 36°02' E 026°54'0 0.7
2018-Jan-09 08:56N 36°03' E 026°54'0 0.6
2018-Jan-09 08:29N 36°03' E 026°53'0 0.6
2018-Jan-09 07:53N 36°03' E 026°53'0 0.6
2018-Jan-09 07:26N 36°03' E 026°53'0 0.6
2018-Jan-09 06:59N 36°03' E 026°52'0 0.4
2018-Jan-09 06:23N 36°03' E 026°52'0 0.5
2018-Jan-09 05:50N 36°03' E 026°52'0 0.5
2018-Jan-09 05:11N 36°04' E 026°52'0 0.5
2018-Jan-09 04:53N 36°04' E 026°51'0 0.4
2018-Jan-09 04:17N 36°04' E 026°51'0 0.4
2018-Jan-09 03:59N 36°04' E 026°51'0 0.4
2018-Jan-09 03:26N 36°04' E 026°51'0 0.3
2018-Jan-09 02:53N 36°04' E 026°51'0 0.4
2018-Jan-09 02:26N 36°04' E 026°51'0 0.5
2018-Jan-09 01:59N 36°05' E 026°51'0 0.7
2018-Jan-09 01:23N 36°05' E 026°50'0 0.7
2018-Jan-09 00:56N 36°05' E 026°50'0 0.7
2018-Jan-09 00:29N 36°06' E 026°50'1 0.5
2018-Jan-08 22:53N 36°06' E 026°49'0 0.4
2018-Jan-08 22:29N 36°06' E 026°49'0 0.3
2018-Jan-08 21:32N 36°06' E 026°49'0 0.3
2018-Jan-08 21:20N 36°06' E 026°49'0 0.3
2018-Jan-08 20:56N 36°07' E 026°49'0 0.3
2018-Jan-08 20:29N 36°06' E 026°48'0 0.3
2018-Jan-08 19:59N 36°06' E 026°48'0 0.2
2018-Jan-08 19:29N 36°07' E 026°48'0 0.2
2018-Jan-08 18:59N 36°07' E 026°48'0 0.2
2018-Jan-08 18:29N 36°07' E 026°48'0 0.2
2018-Jan-08 17:59N 36°07' E 026°48'0 0.4
2018-Jan-08 17:29N 36°06' E 026°48'1 1.0
2018-Jan-08 16:56N 36°06' E 026°47'1 2.5
2018-Jan-08 16:31N 36°05' E 026°46'5 9.7
2018-Jan-08 16:01N 36°01' E 026°43'1 1.3
2018-Jan-08 15:16N 36°00' E 026°43'0 0.6
2018-Jan-08 14:55N 36°00' E 026°43'0 0.6
2018-Jan-08 14:31N 36°01' E 026°43'0 0.6
2018-Jan-08 13:58N 36°01' E 026°43'0 0.6
2018-Jan-08 13:28N 36°01' E 026°43'0 0.5
2018-Jan-08 12:46N 36°02' E 026°43'0 0.5
2018-Jan-08 12:16N 36°02' E 026°43'0 0.4
2018-Jan-08 11:52N 36°02' E 026°43'0 0.3
2018-Jan-08 11:25N 36°02' E 026°43'0 0.4
2018-Jan-08 10:58N 36°02' E 026°43'0 0.9
2018-Jan-08 10:25N 36°03' E 026°44'1 1.9
2018-Jan-08 09:46N 36°04' E 026°45'2 5.8
2018-Jan-08 09:30N 36°05' E 026°46'5 5.8
2018-Jan-08 08:40N 36°08' E 026°50'0 0.6
2018-Jan-08 08:19N 36°08' E 026°50'0 0.7
2018-Jan-08 07:58N 36°08' E 026°50'0 0.6
2018-Jan-08 07:28N 36°07' E 026°50'0 0.4
2018-Jan-08 06:22N 36°07' E 026°51'  
2018-Jan-01 23:03N 35°41' E 030°20'17311.9
2018-Jan-01 08:30N 36°24' E 026°53'713.1
2018-Jan-01 07:57N 36°29' E 026°48'613.3
2018-Jan-01 07:31N 36°35' E 026°46'813.3
2018-Jan-01 06:55N 36°43' E 026°44'1513.2
2018-Jan-01 05:48N 36°57' E 026°41'613.0
2018-Jan-01 05:22N 37°03' E 026°38'513.0
2018-Jan-01 05:01N 37°05' E 026°33'1312.7
2018-Jan-01 04:01N 37°13' E 026°20'613.0
2018-Jan-01 03:31N 37°17' E 026°14'612.7
2018-Jan-01 03:01N 37°21' E 026°07'612.4
2018-Jan-01 02:31N 37°24' E 026°01'612.6
2018-Jan-01 02:01N 37°28' E 025°55'612.1
2018-Jan-01 01:30N 37°32' E 025°49'1212.2
2018-Jan-01 00:31N 37°44' E 025°44'  

Dump ship's entire track history